Time;durP1;ratioP1;P1;durP2;ratioP2;P2;SDS_P1;SDS_P2;PMS_P1;PMS_P2;Temp;Humidity;BMP_temperature;BMP_pressure;BME280_temperature;BME280_humidity;BME280_pressure;Samples;Min_cycle;Max_cycle;Signal;HPM_P1;HPM_P2
2023/05/24 00:02:12;;;;;;;10.18;8.25;;;15.40;99.90;;;;;;5027157;28;20056;-85
2023/05/24 00:04:40;;;;;;;13.10;8.38;;;15.40;99.90;;;;;;5040932;28;20046;-84
2023/05/24 00:07:08;;;;;;;14.48;8.02;;;15.30;99.90;;;;;;5030335;28;20056;-83
2023/05/24 00:09:34;;;;;;;15.07;8.70;;;15.30;99.90;;;;;;5034425;28;20042;-84
2023/05/24 00:12:02;;;;;;;13.07;8.45;;;15.30;99.90;;;;;;5036451;28;20046;-84
2023/05/24 00:14:29;;;;;;;12.10;8.55;;;15.10;99.90;;;;;;5034393;28;20046;-84
2023/05/24 00:16:56;;;;;;;14.27;8.55;;;15.00;99.90;;;;;;5028314;28;20047;-85
2023/05/24 00:19:24;;;;;;;13.10;8.25;;;15.10;99.90;;;;;;5027954;28;20332;-85
2023/05/24 00:21:51;;;;;;;10.13;8.40;;;15.10;99.90;;;;;;5032355;28;20510;-85
2023/05/24 00:24:18;;;;;;;12.98;8.20;;;15.10;99.90;;;;;;5036946;28;20072;-83
2023/05/24 00:26:45;;;;;;;10.93;7.93;;;15.10;99.90;;;;;;5031710;28;20072;-83
2023/05/24 00:29:11;;;;;;;11.00;7.20;;;15.10;99.90;;;;;;5032194;28;20042;-85
2023/05/24 00:31:38;;;;;;;10.93;7.47;;;15.00;99.90;;;;;;5027423;28;20074;-85
2023/05/24 00:34:06;;;;;;;10.35;7.53;;;15.00;99.90;;;;;;5024487;28;20046;-84
2023/05/24 00:36:32;;;;;;;13.38;7.80;;;14.90;99.90;;;;;;5026543;28;20046;-85
2023/05/24 00:38:59;;;;;;;11.60;7.38;;;14.90;99.90;;;;;;5037634;28;20512;-85
2023/05/24 00:41:26;;;;;;;11.40;7.80;;;14.80;99.90;;;;;;5031431;28;20616;-83
2023/05/24 00:43:53;;;;;;;9.63;7.32;;;14.80;99.90;;;;;;5035756;28;20071;-86
2023/05/24 00:46:28;;;;;;;12.13;7.20;;;14.80;99.90;;;;;;5033270;28;20039;-84
2023/05/24 00:48:56;;;;;;;11.90;6.82;;;14.80;99.90;;;;;;5030680;28;20054;-83
2023/05/24 00:51:26;;;;;;;12.57;7.10;;;14.70;99.90;;;;;;5025876;28;20046;-83
2023/05/24 00:53:53;;;;;;;;;;;14.70;99.90;;;;;;5033311;28;20056;-82
2023/05/24 00:56:21;;;;;;;9.80;6.97;;;14.70;99.90;;;;;;5033793;28;19921;-84
2023/05/24 00:58:49;;;;;;;12.52;6.75;;;14.60;99.90;;;;;;5030341;28;20069;-82
2023/05/24 01:01:16;;;;;;;10.85;7.65;;;14.60;99.90;;;;;;5025317;28;20429;-84
2023/05/24 01:03:44;;;;;;;9.63;6.55;;;14.60;99.90;;;;;;5026939;28;20057;-85
2023/05/24 01:06:14;;;;;;;11.88;7.25;;;14.60;99.90;;;;;;5030131;28;20052;-84
2023/05/24 01:08:53;;;;;;;12.23;7.07;;;14.60;99.90;;;;;;5039489;28;20053;-84
2023/05/24 01:11:19;;;;;;;12.80;7.38;;;14.60;99.90;;;;;;5032759;28;20111;-85
2023/05/24 01:14:25;;;;;;;14.68;7.57;;;14.50;99.90;;;;;;5031187;28;20049;-84
2023/05/24 01:17:08;;;;;;;10.05;6.95;;;14.60;99.90;;;;;;5025785;28;20091;-84
2023/05/24 01:19:48;;;;;;;9.95;6.93;;;14.60;99.90;;;;;;5020375;28;20109;-85
2023/05/24 01:22:36;;;;;;;12.68;7.32;;;14.60;99.90;;;;;;5034586;28;20103;-85
2023/05/24 01:25:16;;;;;;;11.63;7.07;;;14.60;99.90;;;;;;5028890;28;20052;-85
2023/05/24 01:27:43;;;;;;;11.70;7.13;;;14.60;99.90;;;;;;5024682;28;20049;-84
2023/05/24 01:30:12;;;;;;;10.63;6.57;;;14.60;99.90;;;;;;5024367;28;20549;-84
2023/05/24 01:32:39;;;;;;;11.27;7.18;;;14.60;99.90;;;;;;5021090;28;20041;-84
2023/05/24 01:35:06;;;;;;;10.52;6.80;;;14.60;99.90;;;;;;5024785;28;20312;-83
2023/05/24 01:37:33;;;;;;;10.00;7.30;;;14.60;99.90;;;;;;5034355;28;20060;-83
2023/05/24 01:40:00;;;;;;;11.65;6.95;;;14.60;99.90;;;;;;5027412;28;20077;-84
2023/05/24 01:42:51;;;;;;;11.57;6.95;;;14.60;99.90;;;;;;5027235;28;20091;-84
2023/05/24 01:45:24;;;;;;;;;;;14.60;99.90;;;;;;5027984;28;20046;-82
2023/05/24 01:48:01;;;;;;;9.85;6.82;;;14.60;99.90;;;;;;5024704;28;20348;-85
2023/05/24 01:50:35;;;;;;;11.65;6.80;;;14.60;99.90;;;;;;5027899;28;20046;-84
2023/05/24 01:53:12;;;;;;;12.45;7.10;;;14.70;99.90;;;;;;5035327;28;20471;-85
2023/05/24 01:55:39;;;;;;;9.25;6.45;;;14.60;99.90;;;;;;5029255;28;20050;-82
2023/05/24 01:58:08;;;;;;;9.65;7.38;;;14.60;99.90;;;;;;5029499;28;20053;-85
2023/05/24 02:00:37;;;;;;;12.45;7.10;;;14.60;99.90;;;;;;5027509;28;20518;-85
2023/05/24 02:03:05;;;;;;;9.77;6.97;;;14.60;99.90;;;;;;5027493;28;20072;-84
2023/05/24 02:05:32;;;;;;;11.80;6.82;;;14.60;99.90;;;;;;5025935;28;20457;-85
2023/05/24 02:07:59;;;;;;;14.27;8.15;;;14.60;99.90;;;;;;5036216;28;20107;-82
2023/05/24 02:10:26;;;;;;;9.93;6.95;;;14.60;99.90;;;;;;5030045;28;20481;-84
2023/05/24 02:12:53;;;;;;;12.13;6.30;;;14.60;99.90;;;;;;5031402;28;20053;-83
2023/05/24 02:15:20;;;;;;;9.68;7.10;;;14.70;99.90;;;;;;5026218;28;20057;-83
2023/05/24 02:17:47;;;;;;;11.35;7.18;;;14.70;99.90;;;;;;5022394;28;20046;-85
2023/05/24 02:20:16;;;;;;;18.35;7.53;;;14.70;99.90;;;;;;5021032;28;20060;-82
2023/05/24 02:22:43;;;;;;;12.05;7.47;;;14.70;99.90;;;;;;5031441;28;20064;-85
2023/05/24 02:25:09;;;;;;;9.98;7.20;;;14.70;99.90;;;;;;5030952;28;20058;-83
2023/05/24 02:27:36;;;;;;;11.68;7.45;;;14.70;99.90;;;;;;5029727;28;20046;-84
2023/05/24 02:30:04;;;;;;;13.75;7.65;;;14.70;99.90;;;;;;5029382;28;20046;-83
2023/05/24 02:32:31;;;;;;;11.98;6.72;;;14.70;99.90;;;;;;5026978;28;20096;-82
2023/05/24 02:35:00;;;;;;;9.93;6.55;;;14.70;99.90;;;;;;5024832;28;20092;-82
2023/05/24 02:37:27;;;;;;;8.85;6.65;;;14.60;99.90;;;;;;5033986;28;20058;-83
2023/05/24 02:39:54;;;;;;;9.35;6.40;;;14.60;99.90;;;;;;5033603;28;20049;-84
2023/05/24 02:42:20;;;;;;;10.25;6.55;;;14.60;99.90;;;;;;5049050;28;20052;-82
2023/05/24 02:44:48;;;;;;;11.95;6.28;;;14.50;99.90;;;;;;5032188;28;20076;-84
2023/05/24 02:47:15;;;;;;;9.05;6.03;;;14.50;99.90;;;;;;5021037;28;20042;-83
2023/05/24 02:49:41;;;;;;;10.55;6.60;;;14.50;99.90;;;;;;5028056;28;20046;-84
2023/05/24 02:52:08;;;;;;;13.05;6.95;;;14.50;99.90;;;;;;5034597;28;20465;-86
2023/05/24 02:54:35;;;;;;;11.43;5.68;;;14.50;99.90;;;;;;5034283;28;20548;-83
2023/05/24 02:57:02;;;;;;;12.32;6.25;;;14.50;99.90;;;;;;5036123;28;20057;-84
2023/05/24 02:59:30;;;;;;;9.27;6.78;;;14.50;99.90;;;;;;5034595;28;20054;-82
2023/05/24 03:01:56;;;;;;;8.02;6.30;;;14.40;99.90;;;;;;5028726;28;20050;-85
2023/05/24 03:04:23;;;;;;;8.23;6.10;;;14.40;99.90;;;;;;5027331;28;20050;-85
2023/05/24 03:06:50;;;;;;;9.27;6.03;;;14.40;99.90;;;;;;5035187;28;20559;-85
2023/05/24 03:09:17;;;;;;;12.90;6.80;;;14.30;99.90;;;;;;5033928;28;20510;-82
2023/05/24 03:11:44;;;;;;;11.27;6.82;;;14.30;99.90;;;;;;5031864;28;20046;-84
2023/05/24 03:14:11;;;;;;;11.88;6.45;;;14.30;99.90;;;;;;5034004;28;20107;-82
2023/05/24 03:16:37;;;;;;;10.35;5.50;;;14.30;99.90;;;;;;5022083;28;20047;-84
2023/05/24 03:19:04;;;;;;;8.27;6.70;;;14.40;99.90;;;;;;5024980;28;20049;-84
2023/05/24 03:21:35;;;;;;;8.55;6.38;;;14.30;99.90;;;;;;5036470;28;20080;-83
2023/05/24 03:24:02;;;;;;;14.75;6.32;;;14.30;99.90;;;;;;5029691;28;20046;-83
2023/05/24 03:26:29;;;;;;;8.85;6.03;;;14.30;99.90;;;;;;5023878;28;20083;-85
2023/05/24 03:28:56;;;;;;;10.50;6.45;;;14.20;99.90;;;;;;5032761;28;20217;-84
2023/05/24 03:31:25;;;;;;;12.13;6.60;;;14.20;99.90;;;;;;5028960;28;20069;-83
2023/05/24 03:33:52;;;;;;;12.15;6.55;;;14.30;99.90;;;;;;5022870;28;20544;-83
2023/05/24 03:36:20;;;;;;;8.60;6.13;;;14.30;99.90;;;;;;5026995;28;20053;-84
2023/05/24 03:38:46;;;;;;;8.55;6.07;;;14.20;99.90;;;;;;5035411;28;20049;-83
2023/05/24 03:41:13;;;;;;;9.32;5.50;;;14.20;99.90;;;;;;5033458;28;20077;-84
2023/05/24 03:43:40;;;;;;;11.68;6.28;;;14.20;99.90;;;;;;5031418;28;20049;-84
2023/05/24 03:46:07;;;;;;;11.13;5.82;;;14.20;99.90;;;;;;5023758;28;20060;-84
2023/05/24 03:48:33;;;;;;;8.48;5.70;;;14.20;99.90;;;;;;5028702;28;20038;-84
2023/05/24 03:51:00;;;;;;;10.45;6.13;;;14.20;99.90;;;;;;5032905;28;20504;-84
2023/05/24 03:53:27;;;;;;;10.65;6.32;;;14.10;99.90;;;;;;5036376;28;20145;-83
2023/05/24 03:55:54;;;;;;;6.88;4.82;;;14.00;99.90;;;;;;5035541;28;20103;-85
2023/05/24 03:58:21;;;;;;;9.50;5.15;;;13.90;99.90;;;;;;5031476;28;20596;-84
2023/05/24 04:00:48;;;;;;;8.77;5.72;;;13.80;99.90;;;;;;5032122;28;20046;-84
2023/05/24 04:03:14;;;;;;;8.15;4.90;;;13.70;99.90;;;;;;5040326;28;20042;-84
2023/05/24 04:05:41;;;;;;;8.25;4.78;;;13.70;99.90;;;;;;5033781;28;20041;-84
2023/05/24 04:08:08;;;;;;;8.35;5.65;;;13.70;99.90;;;;;;5038926;28;20072;-83
2023/05/24 04:10:35;;;;;;;12.55;5.80;;;13.70;99.90;;;;;;5036268;28;20045;-84
2023/05/24 04:13:02;;;;;;;12.23;4.90;;;13.70;99.90;;;;;;5037538;28;20030;-81
2023/05/24 04:15:28;;;;;;;9.70;5.35;;;13.70;99.90;;;;;;5038268;28;20053;-84
2023/05/24 04:17:55;;;;;;;9.43;5.18;;;13.70;99.90;;;;;;5033896;28;20050;-84
2023/05/24 04:20:24;;;;;;;8.30;4.57;;;13.70;99.90;;;;;;5036054;28;20045;-82
2023/05/24 04:22:51;;;;;;;11.18;5.15;;;13.70;99.90;;;;;;5027938;28;20078;-84
2023/05/24 04:25:18;;;;;;;9.10;5.25;;;13.60;99.90;;;;;;5027670;28;20050;-85
2023/05/24 04:27:47;;;;;;;11.57;5.30;;;13.60;99.90;;;;;;5048694;28;20072;-84
2023/05/24 04:30:15;;;;;;;10.43;5.65;;;13.60;99.90;;;;;;5021299;28;20100;-84
2023/05/24 04:32:46;;;;;;;11.55;4.97;;;13.60;99.90;;;;;;5016706;28;20494;-83
2023/05/24 04:35:13;;;;;;;9.77;4.78;;;13.50;99.90;;;;;;5024086;28;20475;-84
2023/05/24 04:37:40;;;;;;;7.93;5.05;;;13.50;99.90;;;;;;5045540;23;20065;-77
2023/05/24 04:40:07;;;;;;;10.23;5.10;;;13.50;99.90;;;;;;5028171;28;20049;-77
2023/05/24 04:42:34;;;;;;;9.07;4.97;;;13.40;99.90;;;;;;5034480;28;20045;-77
2023/05/24 04:45:01;;;;;;;6.20;4.25;;;13.50;99.90;;;;;;5016215;28;20069;-77
2023/05/24 04:47:28;;;;;;;12.30;4.70;;;13.50;99.90;;;;;;5032760;28;20080;-77
2023/05/24 04:49:55;;;;;;;11.95;4.90;;;13.50;99.90;;;;;;5031666;28;20045;-77
2023/05/24 04:52:22;;;;;;;10.02;5.20;;;13.50;99.90;;;;;;5033850;28;20049;-77
2023/05/24 04:54:49;;;;;;;8.55;4.93;;;13.50;99.90;;;;;;5027797;28;20077;-77
2023/05/24 04:57:16;;;;;;;9.75;4.43;;;13.50;99.90;;;;;;5032694;28;20466;-77
2023/05/24 04:59:43;;;;;;;10.18;4.63;;;13.40;99.90;;;;;;5034798;28;20053;-78
2023/05/24 05:02:10;;;;;;;11.95;5.13;;;13.50;99.90;;;;;;5033960;28;20053;-77
2023/05/24 05:04:37;;;;;;;9.70;5.32;;;13.40;99.90;;;;;;5031598;28;20108;-76
2023/05/24 05:07:04;;;;;;;12.38;5.03;;;13.50;99.90;;;;;;5031004;28;20105;-76
2023/05/24 05:09:30;;;;;;;10.02;4.63;;;13.50;99.90;;;;;;5025715;28;20128;-75
2023/05/24 05:11:58;;;;;;;8.45;4.80;;;13.50;99.90;;;;;;5030980;28;20076;-76
2023/05/24 05:14:25;;;;;;;14.07;6.30;;;13.60;99.90;;;;;;5031493;28;20049;-76
2023/05/24 05:16:52;;;;;;;9.35;4.65;;;13.60;99.90;;;;;;5031085;28;20045;-75
2023/05/24 05:19:19;;;;;;;10.10;4.57;;;13.50;99.90;;;;;;5030916;28;20056;-76
2023/05/24 05:21:46;;;;;;;8.38;4.45;;;13.60;99.90;;;;;;5029765;28;20084;-76
2023/05/24 05:24:14;;;;;;;9.15;4.72;;;13.60;99.90;;;;;;5026357;28;20061;-76
2023/05/24 05:26:40;;;;;;;10.13;4.70;;;13.70;99.90;;;;;;5030663;28;20095;-77
2023/05/24 05:29:07;;;;;;;8.98;4.78;;;13.70;99.90;;;;;;5031668;28;20076;-77
2023/05/24 05:31:34;;;;;;;12.30;4.63;;;13.70;99.90;;;;;;5030516;28;20050;-76
2023/05/24 05:34:00;;;;;;;8.57;4.43;;;13.80;99.90;;;;;;5030250;28;20049;-76
2023/05/24 05:36:27;;;;;;;11.95;5.00;;;13.90;99.90;;;;;;5029818;28;20053;-76
2023/05/24 05:38:54;;;;;;;9.75;5.22;;;14.00;99.90;;;;;;5026825;28;20065;-77
2023/05/24 05:41:21;;;;;;;10.00;4.53;;;14.00;99.90;;;;;;5027040;28;20521;-77
2023/05/24 05:43:48;;;;;;;9.65;5.32;;;13.90;99.90;;;;;;5031013;28;20103;-76
2023/05/24 05:46:14;;;;;;;9.10;4.57;;;14.00;99.90;;;;;;5026901;28;20077;-77
2023/05/24 05:48:41;;;;;;;12.25;5.15;;;13.90;99.90;;;;;;5028065;28;20052;-77
2023/05/24 05:51:12;;;;;;;8.98;4.78;;;13.90;99.90;;;;;;5028280;28;20045;-77
2023/05/24 05:53:38;;;;;;;11.63;4.80;;;14.00;99.90;;;;;;5022007;28;20464;-77
2023/05/24 05:56:06;;;;;;;9.68;4.82;;;14.10;99.90;;;;;;5025926;28;20053;-77
2023/05/24 05:58:32;;;;;;;6.70;4.10;;;14.20;99.90;;;;;;5030530;28;20057;-77
2023/05/24 06:00:59;;;;;;;14.60;4.53;;;14.30;99.90;;;;;;5030252;28;20497;-77
2023/05/24 06:03:26;;;;;;;8.38;4.63;;;14.30;99.90;;;;;;5030500;28;20535;-77
2023/05/24 06:05:53;;;;;;;8.40;4.60;;;14.40;99.90;;;;;;5029658;28;20053;-77
2023/05/24 06:08:20;;;;;;;10.65;4.50;;;14.40;99.90;;;;;;5027719;28;20049;-77
2023/05/24 06:10:46;;;;;;;12.40;4.78;;;14.50;99.90;;;;;;5028096;28;20049;-77
2023/05/24 06:13:15;;;;;;;9.75;4.30;;;14.40;99.90;;;;;;5031699;28;20042;-77
2023/05/24 06:15:42;;;;;;;10.35;4.43;;;14.40;99.90;;;;;;5034616;28;20045;-77
2023/05/24 06:18:09;;;;;;;8.27;4.32;;;14.40;99.90;;;;;;5034626;28;20424;-76
2023/05/24 06:20:36;;;;;;;13.77;4.82;;;14.40;99.90;;;;;;5033660;28;20045;-77
2023/05/24 06:23:03;;;;;;;12.55;5.45;;;14.40;99.90;;;;;;5032377;28;20045;-76
2023/05/24 06:25:31;;;;;;;16.95;4.80;;;14.40;99.90;;;;;;5031784;28;20076;-77
2023/05/24 06:27:58;;;;;;;9.98;4.47;;;14.50;99.90;;;;;;5032521;28;20049;-77
2023/05/24 06:30:25;;;;;;;14.43;5.32;;;14.50;99.90;;;;;;5031203;28;20083;-77
2023/05/24 06:32:52;;;;;;;11.13;4.18;;;14.50;99.90;;;;;;5033448;28;20051;-77
2023/05/24 06:35:19;;;;;;;10.80;4.70;;;14.40;99.90;;;;;;5031870;28;20049;-76
2023/05/24 06:37:45;;;;;;;11.02;4.32;;;14.40;99.90;;;;;;5031211;28;20536;-77
2023/05/24 06:40:12;;;;;;;9.98;5.15;;;14.30;99.90;;;;;;5030836;28;20049;-77
2023/05/24 06:42:39;;;;;;;13.77;4.50;;;14.20;99.90;;;;;;5034239;28;20058;-76
2023/05/24 06:45:07;;;;;;;12.90;4.88;;;14.30;99.90;;;;;;5033460;28;20060;-77
2023/05/24 06:47:34;;;;;;;16.33;5.07;;;14.20;99.90;;;;;;5032710;28;20042;-77
2023/05/24 06:50:03;;;;;;;10.55;4.65;;;14.20;99.90;;;;;;5027009;28;20402;-77
2023/05/24 06:52:30;;;;;;;13.98;5.25;;;14.10;99.90;;;;;;5027885;28;20535;-77
2023/05/24 06:54:57;;;;;;;14.57;5.30;;;14.10;99.90;;;;;;5031303;28;20143;-77
2023/05/24 06:57:24;;;;;;;10.07;4.45;;;14.10;99.90;;;;;;5033793;28;20046;-77
2023/05/24 06:59:50;;;;;;;13.85;5.15;;;14.10;99.90;;;;;;5029004;28;20088;-77
2023/05/24 07:02:17;;;;;;;12.32;4.80;;;14.10;99.90;;;;;;5030073;28;20136;-77
2023/05/24 07:04:44;;;;;;;14.13;4.68;;;14.00;99.90;;;;;;5031421;28;20116;-77
2023/05/24 07:07:12;;;;;;;11.25;4.50;;;14.00;99.90;;;;;;5029434;28;20579;-77
2023/05/24 07:09:41;;;;;;;15.32;5.15;;;14.00;99.90;;;;;;5029383;28;20100;-77
2023/05/24 07:12:07;;;;;;;11.75;5.65;;;14.00;99.90;;;;;;5024393;28;20140;-77
2023/05/24 07:14:35;;;;;;;12.02;4.93;;;14.00;99.90;;;;;;5029478;28;20076;-77
2023/05/24 07:17:01;;;;;;;10.32;4.90;;;14.00;99.90;;;;;;5029290;28;20100;-77
2023/05/24 07:19:28;;;;;;;14.38;5.25;;;14.00;99.90;;;;;;5032238;28;20099;-77
2023/05/24 07:21:55;;;;;;;12.27;5.13;;;13.90;99.90;;;;;;5031402;28;20144;-77
2023/05/24 07:24:23;;;;;;;14.50;6.03;;;13.90;99.90;;;;;;5030334;28;20045;-76
2023/05/24 07:26:51;;;;;;;13.93;5.18;;;13.80;99.90;;;;;;5028745;28;20042;-77
2023/05/24 07:29:18;;;;;;;10.73;4.75;;;13.80;99.90;;;;;;5026819;28;20049;-77
2023/05/24 07:31:45;;;;;;;9.82;4.80;;;13.80;99.90;;;;;;5033243;28;20628;-77
2023/05/24 07:34:12;;;;;;;11.38;5.53;;;13.80;99.90;;;;;;5030236;28;20136;-77
2023/05/24 07:36:39;;;;;;;13.10;5.75;;;13.90;99.90;;;;;;5033217;28;20087;-77
2023/05/24 07:39:08;;;;;;;13.52;5.40;;;14.00;99.90;;;;;;5030138;28;20049;-76
2023/05/24 07:41:35;;;;;;;10.00;4.75;;;14.00;99.90;;;;;;5027637;28;20049;-77
2023/05/24 07:44:02;;;;;;;14.70;5.55;;;14.10;99.90;;;;;;5028450;28;20053;-77
2023/05/24 07:46:29;;;;;;;10.52;4.72;;;14.20;99.90;;;;;;5034136;28;20557;-78
2023/05/24 07:48:56;;;;;;;13.15;4.75;;;14.20;99.90;;;;;;5040878;28;20056;-77
2023/05/24 07:51:22;;;;;;;12.38;5.45;;;14.20;99.90;;;;;;5036474;28;20425;-76
2023/05/24 07:53:49;;;;;;;17.17;5.60;;;14.20;99.90;;;;;;5043429;28;20071;-78
2023/05/24 07:56:16;;;;;;;13.00;5.05;;;14.30;99.90;;;;;;5035922;28;20540;-78
2023/05/24 07:58:45;;;;;;;13.75;4.90;;;14.40;99.90;;;;;;5029838;28;20049;-78
2023/05/24 08:01:13;;;;;;;12.25;5.15;;;14.40;99.90;;;;;;5038556;28;20068;-78
2023/05/24 08:03:39;;;;;;;12.38;5.50;;;14.30;99.90;;;;;;5034926;28;20053;-79
2023/05/24 08:06:07;;;;;;;13.02;5.53;;;14.30;99.90;;;;;;5030841;28;20049;-77
2023/05/24 08:08:34;;;;;;;12.85;4.60;;;14.40;99.90;;;;;;5034821;28;20115;-78
2023/05/24 08:11:01;;;;;;;10.82;4.70;;;14.40;99.90;;;;;;5035196;28;20076;-78
2023/05/24 08:13:27;;;;;;;13.15;5.03;;;14.50;99.90;;;;;;5032632;28;20054;-76
2023/05/24 08:15:54;;;;;;;15.32;5.50;;;14.60;99.90;;;;;;5033934;28;20425;-79
2023/05/24 08:18:21;;;;;;;14.23;4.70;;;14.60;99.90;;;;;;5034686;28;20057;-78
2023/05/24 08:20:48;;;;;;;10.63;4.80;;;14.60;99.90;;;;;;5029643;28;20620;-77
2023/05/24 08:23:15;;;;;;;11.85;4.68;;;14.70;99.90;;;;;;5032378;28;20095;-78
2023/05/24 08:25:41;;;;;;;13.23;4.90;;;14.60;99.90;;;;;;5031514;28;20049;-77
2023/05/24 08:28:09;;;;;;;15.10;4.88;;;14.60;99.90;;;;;;5028327;28;20409;-77
2023/05/24 08:30:37;;;;;;;10.05;4.55;;;14.60;99.90;;;;;;5028938;28;20049;-77
2023/05/24 08:33:03;;;;;;;9.45;4.80;;;14.60;99.90;;;;;;5028688;28;20045;-77
2023/05/24 08:35:30;;;;;;;11.13;5.38;;;14.60;99.90;;;;;;5029999;28;20132;-76
2023/05/24 08:37:57;;;;;;;10.93;4.82;;;14.70;99.90;;;;;;5031062;28;20053;-77
2023/05/24 08:40:24;;;;;;;11.93;5.63;;;14.80;99.90;;;;;;5032228;28;20049;-77
2023/05/24 08:42:51;;;;;;;11.48;4.75;;;14.70;99.90;;;;;;5028822;28;20068;-77
2023/05/24 08:45:21;;;;;;;17.13;5.22;;;14.70;99.90;;;;;;5030737;28;20057;-77
2023/05/24 08:47:49;;;;;;;10.43;4.63;;;14.80;99.90;;;;;;5023309;28;20046;-76
2023/05/24 08:50:17;;;;;;;13.40;5.32;;;14.90;99.90;;;;;;5031786;28;20049;-75
2023/05/24 08:52:45;;;;;;;13.50;4.53;;;15.00;99.90;;;;;;5025774;28;20095;-76
2023/05/24 08:55:11;;;;;;;11.40;4.65;;;15.00;99.90;;;;;;5029386;28;20148;-77
2023/05/24 08:57:40;;;;;;;13.05;4.53;;;14.90;99.90;;;;;;5029718;28;20045;-75
2023/05/24 09:00:11;;;;;;;16.75;4.70;;;14.80;99.90;;;;;;5030378;28;20091;-77
2023/05/24 09:02:40;;;;;;;12.63;4.30;;;14.90;99.90;;;;;;5032640;28;20081;-75
2023/05/24 09:05:10;;;;;;;19.75;4.75;;;15.00;99.90;;;;;;5030180;28;20049;-78
2023/05/24 09:07:37;;;;;;;13.63;5.70;;;15.10;99.90;;;;;;5031441;28;20175;-78
2023/05/24 09:10:05;;;;;;;18.55;4.90;;;15.20;99.90;;;;;;5030161;28;20046;-75
2023/05/24 09:12:34;;;;;;;18.67;5.32;;;15.20;99.90;;;;;;5028151;28;20084;-76
2023/05/24 09:15:06;;;;;;;14.02;4.30;;;15.10;99.90;;;;;;5027719;28;20531;-75
2023/05/24 09:17:35;;;;;;;11.40;4.80;;;15.20;99.90;;;;;;5026013;28;20056;-76
2023/05/24 09:20:05;;;;;;;10.88;4.97;;;15.20;99.90;;;;;;5029664;28;20050;-76
2023/05/24 09:22:33;;;;;;;11.55;4.82;;;15.10;99.90;;;;;;5031776;28;20053;-76
2023/05/24 09:25:05;;;;;;;14.63;4.78;;;15.10;99.90;;;;;;5030750;28;20072;-76
2023/05/24 09:27:36;;;;;;;12.00;4.57;;;15.00;99.90;;;;;;5026533;28;20078;-76
2023/05/24 09:30:07;;;;;;;13.73;5.38;;;15.00;99.90;;;;;;5028937;28;20084;-76
2023/05/24 09:32:34;;;;;;;18.55;5.72;;;15.00;99.90;;;;;;5025664;28;20056;-76
2023/05/24 09:35:01;;;;;;;13.02;4.35;;;14.90;99.90;;;;;;5027076;28;20049;-76
2023/05/24 09:37:28;;;;;;;15.88;4.53;;;15.00;99.90;;;;;;5026033;28;20083;-78
2023/05/24 09:39:58;;;;;;;;;;;14.90;99.90;;;;;;5028386;28;20058;-78
2023/05/24 09:42:27;;;;;;;14.27;4.63;;;14.80;99.90;;;;;;5025570;28;19924;-78
2023/05/24 09:45:06;;;;;;;9.98;4.35;;;14.90;99.90;;;;;;5021882;28;20050;-78
2023/05/24 09:47:39;;;;;;;10.82;4.30;;;14.80;99.90;;;;;;5029561;28;20099;-76
2023/05/24 09:50:18;;;;;;;11.98;4.40;;;14.70;99.90;;;;;;5026984;28;20049;-78
2023/05/24 09:52:46;;;;;;;15.68;5.18;;;14.60;99.90;;;;;;5026953;28;20124;-75
2023/05/24 09:55:14;;;;;;;14.75;5.05;;;14.60;99.90;;;;;;5027708;28;20091;-78
2023/05/24 09:57:49;;;;;;;16.15;5.00;;;14.60;99.90;;;;;;5030342;28;20054;-78
2023/05/24 10:00:22;;;;;;;17.48;5.07;;;14.70;99.90;;;;;;5020172;28;20045;-77
2023/05/24 10:03:02;;;;;;;12.10;5.05;;;14.80;99.90;;;;;;5027696;28;20057;-77
2023/05/24 10:05:30;;;;;;;11.73;4.50;;;14.80;99.90;;;;;;5030741;28;20046;-76
2023/05/24 10:07:57;;;;;;;10.55;4.68;;;14.70;99.90;;;;;;5022857;28;20050;-76
2023/05/24 10:10:29;;;;;;;14.57;4.95;;;14.50;99.90;;;;;;5027414;28;20042;-76
2023/05/24 10:12:57;;;;;;;8.90;4.75;;;14.50;99.90;;;;;;5028164;28;20042;-76
2023/05/24 10:15:25;;;;;;;14.05;4.88;;;14.50;99.90;;;;;;5030254;28;20114;-77
2023/05/24 10:17:55;;;;;;;20.00;5.40;;;14.60;99.90;;;;;;5018379;28;20520;-76
2023/05/24 10:20:23;;;;;;;16.00;4.97;;;14.50;99.90;;;;;;5025145;28;20045;-76
2023/05/24 10:23:02;;;;;;;12.98;5.30;;;14.40;99.90;;;;;;5036958;28;20057;-75
2023/05/24 10:25:31;;;;;;;9.95;4.18;;;14.40;99.90;;;;;;5029426;28;20111;-76
2023/05/24 10:28:03;;;;;;;12.95;4.47;;;14.40;99.90;;;;;;5028953;28;20108;-77
2023/05/24 10:30:33;;;;;;;13.30;4.60;;;14.40;99.90;;;;;;5022558;28;20099;-77
2023/05/24 10:33:01;;;;;;;10.85;4.93;;;14.40;99.90;;;;;;5033016;28;20133;-76
2023/05/24 10:35:29;;;;;;;18.98;5.25;;;14.50;99.90;;;;;;5029285;28;20140;-77
2023/05/24 10:37:56;;;;;;;13.82;4.90;;;14.70;99.90;;;;;;5028506;28;20069;-76
2023/05/24 10:40:25;;;;;;;19.33;5.25;;;14.70;99.90;;;;;;5028706;28;20056;-77
2023/05/24 10:42:55;;;;;;;12.25;4.55;;;14.80;99.90;;;;;;5027345;28;20053;-77
2023/05/24 10:45:22;;;;;;;18.77;4.97;;;14.90;99.90;;;;;;5027461;28;20077;-77
2023/05/24 10:47:48;;;;;;;18.00;4.97;;;15.00;99.90;;;;;;5027617;28;20045;-77
2023/05/24 10:50:17;;;;;;;10.93;4.78;;;15.10;99.90;;;;;;5028831;28;20041;-76
2023/05/24 10:52:44;;;;;;;13.38;5.57;;;15.30;99.90;;;;;;5029246;28;20072;-76
2023/05/24 10:55:12;;;;;;;12.88;4.80;;;15.50;99.90;;;;;;5027656;28;20080;-77
2023/05/24 10:57:39;;;;;;;13.98;5.72;;;15.60;99.90;;;;;;5019320;28;20505;-76
2023/05/24 11:00:24;;;;;;;10.70;4.57;;;15.50;99.90;;;;;;5029041;28;20045;-77
2023/05/24 11:03:12;;;;;;;13.45;4.82;;;15.50;99.90;;;;;;5029314;28;20053;-77
2023/05/24 11:05:46;;;;;;;16.67;5.45;;;15.60;99.90;;;;;;5031516;28;20045;-76
2023/05/24 11:08:13;;;;;;;9.15;4.60;;;15.80;99.90;;;;;;5030106;28;20132;-77
2023/05/24 11:10:40;;;;;;;12.63;4.93;;;15.90;99.90;;;;;;5032386;28;20041;-77
2023/05/24 11:13:09;;;;;;;14.95;5.47;;;15.90;99.90;;;;;;5030022;28;20041;-77
2023/05/24 11:15:37;;;;;;;17.98;5.45;;;15.90;99.90;;;;;;5035480;28;20050;-77
2023/05/24 11:18:07;;;;;;;11.95;5.28;;;16.00;99.90;;;;;;5033721;28;20049;-76
2023/05/24 11:20:35;;;;;;;12.95;5.85;;;16.10;99.90;;;;;;5037041;28;20050;-78
2023/05/24 11:23:05;;;;;;;15.07;5.05;;;16.10;99.90;;;;;;5033149;28;20053;-77
2023/05/24 11:25:32;;;;;;;14.10;5.10;;;16.10;99.90;;;;;;5033287;28;20041;-77
2023/05/24 11:28:00;;;;;;;13.43;5.25;;;16.10;99.90;;;;;;5043597;28;20037;-77
2023/05/24 11:30:27;;;;;;;15.52;5.47;;;16.10;99.90;;;;;;5032634;28;20045;-77
2023/05/24 11:32:55;;;;;;;13.48;4.90;;;16.10;99.90;;;;;;5030703;28;20046;-77
2023/05/24 11:35:26;;;;;;;15.07;5.57;;;16.20;99.90;;;;;;5033112;28;20496;-76
2023/05/24 11:37:53;;;;;;;15.00;5.22;;;16.40;99.90;;;;;;5029194;28;20438;-78
2023/05/24 11:40:20;;;;;;;12.40;4.72;;;16.50;99.90;;;;;;5033406;28;20060;-75
2023/05/24 11:42:46;;;;;;;14.00;4.72;;;16.60;99.90;;;;;;5032977;28;20045;-76
2023/05/24 11:45:14;;;;;;;17.88;5.25;;;16.90;99.90;;;;;;5033115;28;20049;-76
2023/05/24 11:47:41;;;;;;;12.05;4.65;;;17.00;99.90;;;;;;5028729;28;20104;-76
2023/05/24 11:50:08;;;;;;;15.05;5.13;;;17.00;99.90;;;;;;5031172;28;20041;-76
2023/05/24 11:52:39;;;;;;;14.05;5.00;;;17.10;99.90;;;;;;5032195;28;20056;-75
2023/05/24 11:55:06;;;;;;;14.23;4.97;;;17.10;99.90;;;;;;5032486;28;20060;-76
2023/05/24 11:57:40;;;;;;;15.48;4.82;;;17.10;99.90;;;;;;5036345;28;20556;-78
2023/05/24 12:00:15;;;;;;;18.08;5.20;;;17.30;99.90;;;;;;5034135;28;20501;-78
2023/05/24 12:02:42;;;;;;;14.63;5.22;;;17.40;99.90;;;;;;5028330;28;20140;-76
2023/05/24 12:05:11;;;;;;;10.07;4.85;;;17.40;99.90;;;;;;5031931;28;20080;-75
2023/05/24 12:07:39;;;;;;;13.32;5.07;;;17.50;99.90;;;;;;5031160;28;20387;-78
2023/05/24 12:10:07;;;;;;;17.20;5.30;;;17.60;99.90;;;;;;5033729;28;20084;-78
2023/05/24 12:12:33;;;;;;;11.63;4.72;;;17.60;99.90;;;;;;5031595;28;20042;-78
2023/05/24 12:15:13;;;;;;;16.15;5.07;;;17.60;99.90;;;;;;5030552;28;20046;-77
2023/05/24 12:17:40;;;;;;;14.93;5.18;;;17.70;99.90;;;;;;5027708;28;20046;-77
2023/05/24 12:20:10;;;;;;;12.60;4.80;;;17.60;99.90;;;;;;5033141;28;20116;-78
2023/05/24 12:22:37;;;;;;;14.95;5.20;;;17.60;99.90;;;;;;5025057;28;20083;-77
2023/05/24 12:25:05;;;;;;;19.75;6.68;;;17.60;99.90;;;;;;5035731;28;20046;-77
2023/05/24 12:27:33;;;;;;;16.00;5.63;;;17.60;99.90;;;;;;5036493;28;20041;-77
2023/05/24 12:30:06;;;;;;;14.23;4.63;;;17.60;99.90;;;;;;5031896;28;20042;-78
2023/05/24 12:32:33;;;;;;;11.27;4.18;;;17.70;99.90;;;;;;5028893;28;20041;-77
2023/05/24 12:35:03;;;;;;;13.60;5.45;;;17.80;99.90;;;;;;5030383;28;20428;-78
2023/05/24 12:37:30;;;;;;;18.88;5.05;;;17.90;99.90;;;;;;5031070;28;20092;-77
2023/05/24 12:40:00;;;;;;;10.73;5.20;;;17.90;99.90;;;;;;5031134;28;20052;-77
2023/05/24 12:42:26;;;;;;;12.05;5.07;;;17.90;99.90;;;;;;5030507;28;20516;-77
2023/05/24 12:44:53;;;;;;;13.00;5.07;;;18.00;99.90;;;;;;5032484;28;20123;-78
2023/05/24 12:47:20;;;;;;;13.27;5.03;;;18.20;99.90;;;;;;5028235;28;20126;-77